Time;durP1;ratioP1;P1;durP2;ratioP2;P2;SDS_P1;SDS_P2;PMS_P1;PMS_P2;Temp;Humidity;BMP_temperature;BMP_pressure;BME280_temperature;BME280_humidity;BME280_pressure;Samples;Min_cycle;Max_cycle;Signal;HPM_P1;HPM_P2
2021/10/22 00:01:00;;;;;;;6.18;1.50;;;;;;;13.00;63.79;99860.44;4825838;28;119551;-75
2021/10/22 00:03:26;;;;;;;7.07;1.48;;;;;;;13.04;63.87;99850.75;4824270;28;119903;-75
2021/10/22 00:05:52;;;;;;;11.10;1.35;;;;;;;13.07;64.46;99840.75;4801297;28;119995;-76
2021/10/22 00:08:17;;;;;;;10.75;1.50;;;;;;;13.08;64.25;99845.78;4829491;28;119782;-76
2021/10/22 00:10:44;;;;;;;9.50;1.92;;;;;;;13.08;63.93;99834.00;4828478;28;119617;-76
2021/10/22 00:13:11;;;;;;;10.48;1.77;;;;;;;13.05;64.32;99830.25;4821214;29;120140;-76
2021/10/22 00:15:36;;;;;;;10.20;1.75;;;;;;;13.09;64.43;99841.03;4827707;28;120423;-76
2021/10/22 00:18:02;;;;;;;12.52;1.73;;;;;;;13.11;64.69;99838.53;4809772;28;120251;-76
2021/10/22 00:20:28;;;;;;;11.00;1.88;;;;;;;13.15;64.23;99839.06;4827593;28;119751;-76
2021/10/22 00:22:53;;;;;;;10.20;2.10;;;;;;;13.16;64.28;99844.09;4829386;28;120046;-75
2021/10/22 00:25:22;;;;;;;12.43;1.90;;;;;;;13.16;64.05;99840.59;4829295;28;119914;-76
2021/10/22 00:27:48;;;;;;;11.90;1.90;;;;;;;13.12;64.05;99837.31;4832872;28;121216;-76
2021/10/22 00:30:13;;;;;;;16.92;2.35;;;;;;;13.13;64.46;99841.56;4794414;29;120710;-76
2021/10/22 00:32:39;;;;;;;12.82;1.50;;;;;;;13.12;64.32;99832.53;4825161;28;121133;-75
2021/10/22 00:35:05;;;;;;;11.95;1.83;;;;;;;13.10;64.45;99828.78;4829383;28;119916;-76
2021/10/22 00:37:31;;;;;;;13.52;1.90;;;;;;;13.09;64.56;99828.03;4806332;29;119507;-76
2021/10/22 00:39:57;;;;;;;11.07;1.88;;;;;;;13.10;64.30;99820.50;4829453;28;119463;-75
2021/10/22 00:42:23;;;;;;;11.93;2.13;;;;;;;13.13;64.78;99825.03;4808577;29;120401;-76
2021/10/22 00:44:51;;;;;;;17.85;2.00;;;;;;;13.15;64.44;99822.56;4809267;28;120034;-76
2021/10/22 00:47:17;;;;;;;12.80;2.05;;;;;;;13.17;64.55;99815.34;4827908;28;119864;-76
2021/10/22 00:49:45;;;;;;;11.15;2.10;;;;;;;13.19;64.63;99803.84;4820406;28;120721;-76
2021/10/22 00:52:11;;;;;;;11.57;1.63;;;;;;;13.20;64.41;99802.59;4821677;28;119430;-76
2021/10/22 00:54:37;;;;;;;14.38;2.00;;;;;;;13.19;64.51;99801.09;4823670;28;119397;-76
2021/10/22 00:57:03;;;;;;;14.30;2.53;;;;;;;13.23;64.14;99800.84;4829147;28;119600;-75
2021/10/22 00:59:30;;;;;;;11.48;1.75;;;;;;;13.24;64.38;99797.59;4830186;28;119891;-76
2021/10/22 01:01:55;;;;;;;14.98;1.90;;;;;;;13.20;63.80;99797.84;4829756;28;119445;-76
2021/10/22 01:04:21;;;;;;;14.43;1.80;;;;;;;13.22;64.24;99797.34;4824324;28;119478;-76
2021/10/22 01:06:47;;;;;;;8.10;1.67;;;;;;;13.30;64.28;99809.44;4828370;28;121657;-76
2021/10/22 01:09:13;;;;;;;14.30;2.67;;;;;;;13.21;64.62;99790.31;4830605;28;119925;-77
2021/10/22 01:11:40;;;;;;;12.57;2.22;;;;;;;13.37;64.62;99810.97;4794473;29;119687;-76
2021/10/22 01:14:07;;;;;;;13.43;2.17;;;;;;;13.43;65.02;99804.25;4827529;28;119689;-76
2021/10/22 01:16:37;;;;;;;13.77;2.55;;;;;;;13.51;65.33;99808.09;4813277;29;120511;-76
2021/10/22 01:19:03;;;;;;;17.38;2.30;;;;;;;13.59;64.55;99805.63;4830334;28;119969;-76
2021/10/22 01:21:29;;;;;;;18.30;1.90;;;;;;;13.65;64.75;99795.38;4822495;28;119602;-76
2021/10/22 01:23:55;;;;;;;15.73;2.25;;;;;;;13.72;64.63;99800.44;4813067;29;120242;-76
2021/10/22 01:26:22;;;;;;;13.70;3.05;;;;;;;13.71;64.40;99790.66;4828146;28;119875;-75
2021/10/22 01:28:49;;;;;;;13.82;2.25;;;;;;;13.76;63.92;99792.69;4826051;28;121988;-77
2021/10/22 01:31:15;;;;;;;7.65;1.30;;;;;;;13.79;64.18;99791.72;4826327;28;119848;-76
2021/10/22 01:33:41;;;;;;;13.70;2.15;;;;;;;13.75;64.02;99782.94;4814956;29;119714;-76
2021/10/22 01:36:07;;;;;;;10.85;1.60;;;;;;;13.79;63.90;99788.19;4826065;28;119855;-77
2021/10/22 01:38:33;;;;;;;12.98;1.92;;;;;;;13.77;64.15;99793.44;4826063;28;119618;-76
2021/10/22 01:40:59;;;;;;;12.23;1.90;;;;;;;13.81;64.03;99788.47;4814858;28;119729;-76
2021/10/22 01:43:26;;;;;;;11.40;1.50;;;;;;;13.79;63.70;99788.94;4822635;28;119885;-76
2021/10/22 01:45:52;;;;;;;14.13;1.90;;;;;;;13.74;64.14;99781.41;4828807;28;120554;-76
2021/10/22 01:48:19;;;;;;;10.07;1.83;;;;;;;13.80;64.06;99792.47;4815234;29;120538;-76
2021/10/22 01:50:45;;;;;;;14.30;1.60;;;;;;;13.79;63.71;99788.19;4820512;28;119617;-76
2021/10/22 01:53:16;;;;;;;11.68;2.03;;;;;;;13.79;63.96;99791.72;4799928;28;123476;-76
2021/10/22 01:55:42;;;;;;;17.45;2.55;;;;;;;13.78;64.31;99775.66;4820922;28;119522;-77
2021/10/22 01:58:08;;;;;;;13.77;1.83;;;;;;;13.76;64.01;99778.91;4815955;29;119657;-76
2021/10/22 02:00:34;;;;;;;10.98;1.33;;;;;;;13.77;63.97;99787.94;4812152;28;119613;-76
2021/10/22 02:03:00;;;;;;;12.18;1.92;;;;;;;13.79;64.20;99777.19;4809472;28;119523;-75
2021/10/22 02:05:34;;;;;;;15.05;1.98;;;;;;;13.78;64.04;99775.66;4828855;28;119717;-76
2021/10/22 02:08:00;;;;;;;8.55;1.35;;;;;;;13.81;64.82;99763.66;4820664;28;119947;-76
2021/10/22 02:10:26;;;;;;;11.57;1.60;;;;;;;13.83;64.71;99761.16;4817213;28;119620;-76
2021/10/22 02:12:51;;;;;;;8.80;1.55;;;;;;;13.89;64.83;99761.91;4824003;28;121479;-76
2021/10/22 02:15:17;;;;;;;8.38;1.30;;;;;;;13.93;64.28;99754.16;4818959;28;120402;-76
2021/10/22 02:17:43;;;;;;;9.15;1.58;;;;;;;13.96;64.12;99750.44;4823731;28;121366;-76
2021/10/22 02:20:11;;;;;;;10.45;1.40;;;;;;;13.98;64.11;99741.69;4827372;28;119683;-76
2021/10/22 02:22:36;;;;;;;8.27;1.50;;;;;;;14.05;63.13;99741.19;4828933;28;119904;-76
2021/10/22 02:25:03;;;;;;;10.70;1.23;;;;;;;14.04;63.15;99736.91;4819975;28;120637;-77
2021/10/22 02:27:29;;;;;;;11.05;1.33;;;;;;;13.91;62.64;99717.31;4831262;28;119900;-77
2021/10/22 02:29:55;;;;;;;7.13;1.42;;;;;;;13.98;61.85;99727.88;4807732;29;119718;-77
2021/10/22 02:32:21;;;;;;;7.80;1.23;;;;;;;13.96;62.98;99735.88;4822474;28;119994;-76
2021/10/22 02:34:46;;;;;;;5.25;1.20;;;;;;;13.98;62.78;99742.44;4807853;29;121267;-76
2021/10/22 02:37:12;;;;;;;9.68;1.10;;;;;;;13.97;63.19;99740.91;4805201;28;120996;-76
2021/10/22 02:39:41;;;;;;;7.38;1.40;;;;;;;14.03;64.36;99727.91;4824237;28;119538;-76
2021/10/22 02:42:07;;;;;;;5.90;1.23;;;;;;;14.07;63.61;99742.19;4810551;28;121022;-76
2021/10/22 02:44:33;;;;;;;8.52;1.35;;;;;;;14.12;63.00;99729.66;4822337;28;120128;-76
2021/10/22 02:46:59;;;;;;;6.50;1.02;;;;;;;14.17;62.71;99737.19;4803133;28;121941;-75
2021/10/22 02:49:26;;;;;;;4.18;1.17;;;;;;;14.18;63.06;99743.47;4824289;28;119527;-76
2021/10/22 02:51:54;;;;;;;8.45;1.42;;;;;;;14.14;63.50;99727.91;4823277;28;119781;-76
2021/10/22 02:54:22;;;;;;;6.15;0.95;;;;;;;14.14;63.12;99716.88;4805866;28;121543;-76
2021/10/22 02:56:47;;;;;;;7.38;1.10;;;;;;;14.00;63.00;99693.06;4825130;28;120523;-76
2021/10/22 02:59:13;;;;;;;6.63;1.20;;;;;;;14.08;63.30;99694.06;4828308;28;119581;-76
2021/10/22 03:01:39;;;;;;;3.42;1.13;;;;;;;14.01;62.31;99680.03;4819524;28;120753;-76
2021/10/22 03:04:05;;;;;;;4.15;1.00;;;;;;;13.96;61.99;99695.31;4826742;28;119718;-76
2021/10/22 03:06:30;;;;;;;7.60;1.27;;;;;;;13.94;62.35;99688.75;4824326;28;121118;-76
2021/10/22 03:08:56;;;;;;;6.18;1.20;;;;;;;13.91;62.25;99682.22;4815580;29;119809;-76
2021/10/22 03:11:23;;;;;;;2.65;1.23;;;;;;;13.89;62.88;99690.25;4825871;28;120722;-77
2021/10/22 03:13:48;;;;;;;9.15;1.50;;;;;;;13.86;62.40;99682.22;4810469;28;121210;-76
2021/10/22 03:16:15;;;;;;;7.97;1.40;;;;;;;13.83;62.20;99697.75;4829142;28;121263;-76
2021/10/22 03:18:41;;;;;;;8.90;1.30;;;;;;;13.80;62.91;99699.50;4826925;28;119576;-77
2021/10/22 03:21:07;;;;;;;4.60;1.10;;;;;;;13.81;63.17;99683.72;4831276;28;119653;-76
2021/10/22 03:23:32;;;;;;;5.00;1.10;;;;;;;13.82;62.78;99660.41;4815042;28;119495;-76
2021/10/22 03:25:58;;;;;;;9.05;1.48;;;;;;;13.78;62.49;99654.41;4809462;29;120793;-76
2021/10/22 03:28:24;;;;;;;7.40;1.48;;;;;;;13.74;63.98;99642.88;4820206;28;120656;-76
2021/10/22 03:30:49;;;;;;;6.10;1.15;;;;;;;13.77;63.19;99642.63;4829785;28;120115;-76
2021/10/22 03:33:15;;;;;;;5.70;1.20;;;;;;;13.74;63.73;99640.88;4806788;28;121248;-76
2021/10/22 03:35:41;;;;;;;8.85;1.30;;;;;;;13.70;63.01;99642.34;4813982;28;119707;-77
2021/10/22 03:38:07;;;;;;;9.68;1.60;;;;;;;13.63;63.50;99640.06;4827726;28;120058;-76
2021/10/22 03:40:34;;;;;;;7.97;1.58;;;;;;;13.63;63.63;99642.81;4822394;28;121804;-76
2021/10/22 03:43:00;;;;;;;6.10;1.05;;;;;;;13.59;63.48;99632.03;4830456;28;119810;-76
2021/10/22 03:45:26;;;;;;;10.32;1.20;;;;;;;13.59;63.95;99623.78;4824044;28;119577;-76
2021/10/22 03:47:55;;;;;;;10.93;1.25;;;;;;;13.56;63.84;99618.50;4831429;28;119608;-76
2021/10/22 03:50:22;;;;;;;8.27;1.63;;;;;;;13.52;63.93;99625.00;4826982;28;119570;-76
2021/10/22 03:52:48;;;;;;;8.90;1.23;;;;;;;13.51;63.98;99625.50;4825653;28;120318;-76
2021/10/22 03:55:15;;;;;;;10.27;1.48;;;;;;;13.48;64.20;99630.00;4826179;28;120146;-77
2021/10/22 03:57:41;;;;;;;7.25;1.65;;;;;;;13.49;64.07;99626.00;4831402;28;119784;-75
2021/10/22 04:00:08;;;;;;;14.93;1.92;;;;;;;13.49;64.23;99625.25;4829481;28;119888;-76
2021/10/22 04:02:40;;;;;;;10.25;1.52;;;;;;;13.43;64.37;99622.47;4832378;28;119421;-76
2021/10/22 04:05:07;;;;;;;14.07;1.75;;;;;;;13.51;64.41;99639.28;4826665;28;119727;-76
2021/10/22 04:07:34;;;;;;;8.85;1.60;;;;;;;13.49;64.65;99642.53;4826148;28;119988;-76
2021/10/22 04:10:04;;;;;;;13.68;1.83;;;;;;;13.49;64.38;99642.53;4821047;28;119690;-76
2021/10/22 04:12:30;;;;;;;14.32;2.20;;;;;;;13.49;64.51;99631.53;4810783;29;120879;-76
2021/10/22 04:14:56;;;;;;;9.23;1.70;;;;;;;13.49;64.63;99600.47;4824706;28;120223;-76
2021/10/22 04:17:22;;;;;;;8.63;1.75;;;;;;;13.48;64.29;99596.94;4815302;28;119728;-77
2021/10/22 04:19:48;;;;;;;12.75;2.03;;;;;;;13.48;64.52;99616.22;4810717;29;121943;-76
2021/10/22 04:22:13;;;;;;;16.77;2.40;;;;;;;13.50;65.03;99591.69;4824957;28;120156;-76
2021/10/22 04:24:39;;;;;;;15.45;2.08;;;;;;;13.54;65.26;99593.47;4811589;28;119369;-76
2021/10/22 04:27:05;;;;;;;19.35;2.17;;;;;;;13.55;65.25;99609.50;4820071;28;119610;-75
2021/10/22 04:29:30;;;;;;;13.98;1.75;;;;;;;13.62;65.12;99633.06;4811806;28;119630;-76
2021/10/22 04:31:56;;;;;;;13.13;2.28;;;;;;;13.65;65.58;99626.53;4827031;28;119531;-77
2021/10/22 04:34:24;;;;;;;11.02;2.00;;;;;;;13.66;65.36;99597.75;4829553;28;119606;-76
2021/10/22 04:36:50;;;;;;;12.85;2.40;;;;;;;13.62;65.22;99589.72;4806005;29;120110;-76
2021/10/22 04:42:05;;;;;;;13.02;1.65;;;;;;;13.68;65.40;99586.97;4822784;28;119368;-75
2021/10/22 04:44:31;;;;;;;11.15;1.83;;;;;;;13.71;65.58;99574.94;4815386;28;120851;-76
2021/10/22 04:46:57;;;;;;;8.68;1.67;;;;;;;13.74;65.56;99577.47;4826096;28;120342;-76
2021/10/22 04:49:23;;;;;;;9.98;1.60;;;;;;;13.74;64.86;99574.72;4807452;29;119783;-76
2021/10/22 04:51:48;;;;;;;10.40;1.80;;;;;;;13.76;64.59;99583.25;4824022;28;119841;-76
2021/10/22 04:54:14;;;;;;;5.93;1.42;;;;;;;13.77;64.22;99575.72;4813543;29;121718;-76
2021/10/22 04:56:40;;;;;;;9.85;1.48;;;;;;;13.75;63.80;99559.69;4806312;28;119658;-76
2021/10/22 04:59:08;;;;;;;6.20;1.30;;;;;;;13.74;63.98;99546.41;4832535;28;119905;-77
2021/10/22 05:01:33;;;;;;;9.13;1.60;;;;;;;13.68;63.67;99529.09;4828732;28;118720;-76
2021/10/22 05:03:59;;;;;;;7.88;1.40;;;;;;;13.65;64.08;99527.34;4826401;28;120743;-76
2021/10/22 05:06:24;;;;;;;10.55;1.40;;;;;;;13.62;64.26;99518.09;4809739;28;121874;-76
2021/10/22 05:08:50;;;;;;;9.93;1.58;;;;;;;13.62;64.35;99514.56;4807943;29;119467;-76
2021/10/22 05:11:16;;;;;;;11.95;1.80;;;;;;;13.58;64.15;99508.56;4825980;28;119553;-76
2021/10/22 05:13:42;;;;;;;12.32;1.98;;;;;;;13.56;64.26;99497.28;4828762;28;119881;-76
2021/10/22 05:16:07;;;;;;;11.00;1.90;;;;;;;13.55;64.34;99501.31;4813176;28;119935;-76
2021/10/22 05:18:33;;;;;;;8.95;2.38;;;;;;;13.50;65.01;99492.53;4826705;28;120336;-76
2021/10/22 05:20:58;;;;;;;11.13;1.95;;;;;;;13.54;64.76;99499.78;4827182;28;119873;-76
2021/10/22 05:23:24;;;;;;;11.82;2.10;;;;;;;13.52;64.53;99498.28;4827696;28;119524;-76
2021/10/22 05:25:50;;;;;;;11.57;2.42;;;;;;;13.54;64.66;99499.78;4792415;28;120676;-76
2021/10/22 05:28:16;;;;;;;11.65;2.28;;;;;;;13.55;64.69;99491.03;4829209;28;119342;-76
2021/10/22 05:30:42;;;;;;;17.90;2.90;;;;;;;13.59;64.59;99496.28;4824646;28;119768;-76
2021/10/22 05:33:11;;;;;;;11.40;2.05;;;;;;;13.60;65.11;99497.78;4820611;28;119461;-75
2021/10/22 05:35:36;;;;;;;15.13;2.58;;;;;;;13.60;64.91;99517.09;4823853;28;119821;-76
2021/10/22 05:38:04;;;;;;;10.93;2.35;;;;;;;13.57;65.13;99512.56;4816100;29;119576;-76
2021/10/22 05:40:30;;;;;;;16.08;3.00;;;;;;;13.61;65.05;99499.28;4824478;28;119784;-75
2021/10/22 05:42:55;;;;;;;13.60;1.83;;;;;;;13.66;64.91;99502.06;4814381;29;119570;-76
2021/10/22 05:45:23;;;;;;;9.40;1.55;;;;;;;13.69;65.31;99494.78;4822258;28;123254;-76
2021/10/22 05:47:49;;;;;;;9.13;1.60;;;;;;;13.72;64.79;99513.06;4828731;28;119692;-76
2021/10/22 05:50:15;;;;;;;6.40;1.70;;;;;;;13.74;65.25;99513.34;4808043;29;119679;-76
2021/10/22 05:52:41;;;;;;;7.00;1.30;;;;;;;13.79;65.53;99527.13;4797395;28;121675;-76
2021/10/22 05:55:07;;;;;;;5.82;1.50;;;;;;;13.80;64.90;99517.59;4825760;28;119784;-76
2021/10/22 05:57:33;;;;;;;8.32;1.50;;;;;;;13.83;64.70;99510.34;4830116;28;119467;-76
2021/10/22 05:59:58;;;;;;;10.20;1.80;;;;;;;13.85;64.82;99518.09;4832456;28;119786;-76
2021/10/22 06:02:24;;;;;;;10.23;1.60;;;;;;;13.82;64.42;99490.28;4825189;28;119826;-76
2021/10/22 06:04:50;;;;;;;9.82;1.77;;;;;;;13.78;64.94;99473.25;4823409;28;120739;-76
2021/10/22 06:07:15;;;;;;;10.82;1.45;;;;;;;13.72;64.36;99455.22;4824345;28;120084;-76
2021/10/22 06:09:41;;;;;;;8.07;1.30;;;;;;;13.66;63.86;99451.72;4825059;28;119413;-76
2021/10/22 06:12:13;;;;;;;7.03;1.00;;;;;;;13.61;64.50;99450.47;4823318;28;119875;-76
2021/10/22 06:14:39;;;;;;;8.88;1.35;;;;;;;13.57;64.41;99474.00;4812773;28;119796;-76
2021/10/22 06:17:06;;;;;;;7.25;1.08;;;;;;;13.52;64.19;99506.56;4821296;28;120061;-76
2021/10/22 06:19:35;;;;;;;6.57;1.13;;;;;;;13.45;64.61;99520.81;4827686;28;119983;-76
2021/10/22 06:22:10;;;;;;;8.13;1.45;;;;;;;13.41;64.62;99523.06;4826801;28;119520;-76
2021/10/22 06:24:36;;;;;;;5.95;1.17;;;;;;;13.32;64.68;99506.00;4809358;29;120391;-76
2021/10/22 06:27:02;;;;;;;5.20;1.33;;;;;;;13.30;64.75;99517.53;4824555;28;119922;-76
2021/10/22 06:29:29;;;;;;;7.47;1.80;;;;;;;13.26;65.64;99508.00;4810162;28;119595;-76
2021/10/22 06:31:55;;;;;;;7.55;1.30;;;;;;;13.25;65.93;99499.00;4829971;28;120097;-76
2021/10/22 06:34:23;;;;;;;10.02;1.80;;;;;;;13.26;65.36;99508.75;4823672;28;119650;-76
2021/10/22 06:36:52;;;;;;;6.00;1.05;;;;;;;13.22;65.29;99486.19;4812235;28;119896;-76
2021/10/22 06:39:17;;;;;;;11.30;1.58;;;;;;;13.26;65.64;99495.00;4824810;28;120330;-75
2021/10/22 06:41:43;;;;;;;10.48;1.65;;;;;;;13.26;65.95;99489.47;4823985;28;119866;-77
2021/10/22 06:44:08;;;;;;;12.95;1.80;;;;;;;13.29;65.82;99491.25;4827412;28;119432;-76
2021/10/22 06:46:35;;;;;;;10.85;1.48;;;;;;;13.19;65.81;99465.91;4807966;29;119508;-76
2021/10/22 06:49:01;;;;;;;10.18;1.63;;;;;;;13.32;66.47;99484.75;4809573;28;120489;-76
2021/10/22 06:51:27;;;;;;;7.88;1.52;;;;;;;13.34;66.37;99476.72;4831417;28;119920;-76
2021/10/22 06:53:52;;;;;;;11.90;1.80;;;;;;;13.41;66.40;99489.25;4810657;28;119668;-76
2021/10/22 06:56:18;;;;;;;14.35;2.30;;;;;;;13.43;66.18;99487.50;4800013;29;120017;-76
2021/10/22 06:58:44;;;;;;;11.48;1.92;;;;;;;13.46;65.95;99483.00;4824075;28;119570;-76
2021/10/22 07:01:10;;;;;;;13.95;1.80;;;;;;;13.48;65.88;99478.47;4808740;29;119688;-76
2021/10/22 07:03:39;;;;;;;8.95;1.85;;;;;;;13.48;66.10;99469.47;4825294;28;120235;-76
2021/10/22 07:08:55;;;;;;;16.42;2.50;;;;;;;13.56;66.26;99453.22;4805534;28;119531;-76
2021/10/22 07:11:23;;;;;;;17.38;2.20;;;;;;;13.57;66.28;99466.50;4843374;28;120163;-76
2021/10/22 07:13:56;;;;;;;14.40;2.60;;;;;;;13.60;66.47;99470.25;4807557;29;119732;-76
2021/10/22 07:16:24;;;;;;;15.65;2.38;;;;;;;13.65;66.26;99491.53;4820672;28;120545;-76
2021/10/22 07:18:52;;;;;;;17.38;2.80;;;;;;;13.69;66.51;99478.25;4822174;28;121299;-76
2021/10/22 07:21:19;;;;;;;13.32;1.98;;;;;;;13.72;66.24;99467.00;4823769;28;120033;-76
2021/10/22 07:23:48;;;;;;;12.40;1.80;;;;;;;13.73;66.02;99467.75;4805810;28;121147;-76
2021/10/22 07:26:14;;;;;;;16.33;2.25;;;;;;;13.74;66.62;99466.50;4827503;28;119784;-76
2021/10/22 07:28:41;;;;;;;17.25;2.25;;;;;;;13.80;65.87;99467.25;4825832;28;121594;-76
2021/10/22 07:31:10;;;;;;;12.60;1.98;;;;;;;13.80;65.96;99459.72;4808551;28;119649;-75
2021/10/22 07:33:37;;;;;;;10.73;1.75;;;;;;;13.85;65.90;99454.72;4824937;28;119424;-76
2021/10/22 07:36:06;;;;;;;14.60;2.40;;;;;;;13.77;65.48;99449.72;4823414;28;120639;-76
2021/10/22 07:38:32;;;;;;;14.80;2.30;;;;;;;13.80;65.54;99450.72;4823889;28;122406;-76
2021/10/22 07:40:57;;;;;;;8.77;1.55;;;;;;;13.83;66.12;99438.69;4828177;28;119636;-76
2021/10/22 07:43:23;;;;;;;9.40;1.42;;;;;;;13.85;66.14;99438.94;4824582;28;119995;-76
2021/10/22 07:45:49;;;;;;;19.20;2.25;;;;;;;13.95;66.22;99445.66;4822363;28;119721;-75
2021/10/22 07:48:14;;;;;;;19.20;2.35;;;;;;;14.01;65.70;99443.69;4818067;28;119388;-77
2021/10/22 07:50:41;;;;;;;10.15;1.63;;;;;;;14.10;66.16;99445.41;4824748;28;119615;-76
2021/10/22 07:53:07;;;;;;;15.75;2.03;;;;;;;14.21;66.19;99441.91;4796478;28;120249;-76
2021/10/22 07:55:35;;;;;;;9.25;2.00;;;;;;;14.25;66.18;99434.84;4827371;28;119904;-76
2021/10/22 07:58:02;;;;;;;14.30;1.90;;;;;;;14.37;65.82;99441.06;4807871;28;122309;-76
2021/10/22 08:00:28;;;;;;;10.32;2.20;;;;;;;14.40;65.46;99409.72;4818462;28;119709;-76
2021/10/22 08:02:53;;;;;;;11.80;1.67;;;;;;;14.37;65.17;99411.50;4824927;28;119726;-76
2021/10/22 08:05:21;;;;;;;9.43;1.40;;;;;;;14.42;65.46;99437.53;4822814;28;120289;-76
2021/10/22 08:07:48;;;;;;;13.65;2.22;;;;;;;14.46;65.39;99438.09;4830793;28;120235;-76
2021/10/22 08:10:14;;;;;;;12.32;1.75;;;;;;;14.50;64.80;99449.59;4820734;28;120466;-77
2021/10/22 08:12:41;;;;;;;12.80;2.45;;;;;;;14.52;64.90;99455.38;4840846;28;119763;-76
2021/10/22 08:15:08;;;;;;;7.38;1.40;;;;;;;14.51;64.82;99459.38;4827536;28;119780;-75
2021/10/22 08:17:35;;;;;;;11.55;1.70;;;;;;;14.51;64.09;99486.22;4822227;28;120323;-76
2021/10/22 08:20:05;;;;;;;12.00;2.17;;;;;;;14.45;63.77;99518.59;4814632;28;119509;-76
2021/10/22 08:22:32;;;;;;;13.38;1.90;;;;;;;14.35;63.31;99499.50;4831651;28;119745;-76
2021/10/22 08:25:06;;;;;;;13.32;1.45;;;;;;;14.23;63.48;99492.53;4821099;28;119989;-77
2021/10/22 08:27:38;;;;;;;11.68;1.77;;;;;;;14.14;63.46;99501.78;4827041;28;120517;-76
2021/10/22 08:30:06;;;;;;;5.90;1.23;;;;;;;14.06;63.34;99500.81;4834787;28;119945;-76
2021/10/22 08:32:33;;;;;;;5.25;0.98;;;;;;;13.90;62.89;99482.25;4828312;28;119953;-76
2021/10/22 08:35:00;;;;;;;5.55;1.05;;;;;;;13.87;63.24;99491.53;4824709;28;119759;-77
2021/10/22 08:37:26;;;;;;;6.68;1.08;;;;;;;13.85;63.53;99496.06;4811731;28;119928;-76
2021/10/22 08:39:54;;;;;;;6.95;1.55;;;;;;;13.77;63.53;99495.81;4826532;28;119517;-76
2021/10/22 08:42:23;;;;;;;5.20;1.10;;;;;;;13.81;63.38;99519.09;4811625;29;119932;-76
2021/10/22 08:44:56;;;;;;;4.72;1.50;;;;;;;13.75;63.25;99520.38;4794450;29;121410;-76
2021/10/22 08:47:30;;;;;;;7.60;1.80;;;;;;;13.71;64.17;99528.84;4814047;28;120212;-76
2021/10/22 08:49:58;;;;;;;9.50;1.63;;;;;;;13.64;63.73;99520.34;4809005;29;119913;-77
2021/10/22 08:52:26;;;;;;;8.63;1.70;;;;;;;13.65;64.56;99535.63;4810645;28;121920;-77
2021/10/22 08:54:52;;;;;;;5.97;1.58;;;;;;;13.64;64.87;99543.13;4825980;28;119725;-77
2021/10/22 08:57:18;;;;;;;9.98;1.92;;;;;;;13.66;64.73;99546.13;4825128;28;120041;-76
2021/10/22 08:59:44;;;;;;;10.38;1.67;;;;;;;13.67;64.31;99552.41;4810775;28;119497;-76
2021/10/22 09:02:16;;;;;;;11.05;2.03;;;;;;;13.63;64.34;99546.38;4816214;29;119614;-77
2021/10/22 09:04:46;;;;;;;9.82;1.77;;;;;;;13.65;63.71;99561.16;4797995;28;120976;-76
2021/10/22 09:07:17;;;;;;;7.10;1.77;;;;;;;13.66;64.27;99573.69;4824538;28;119958;-76
2021/10/22 09:09:47;;;;;;;7.75;1.65;;;;;;;13.65;64.48;99588.72;4830336;28;120024;-76
2021/10/22 09:12:13;;;;;;;9.23;1.98;;;;;;;13.68;64.67;99603.50;4822999;28;119975;-76
2021/10/22 09:14:59;;;;;;;5.55;1.40;;;;;;;13.62;64.31;99613.75;4831091;28;120577;-76
2021/10/22 09:17:36;;;;;;;11.13;1.58;;;;;;;13.62;64.36;99624.78;4816836;29;120555;-76
2021/10/22 09:20:04;;;;;;;8.65;1.45;;;;;;;13.57;64.78;99653.81;4792995;28;119511;-76
2021/10/22 09:22:33;;;;;;;6.60;1.10;;;;;;;13.47;63.50;99655.28;4845180;28;119536;-76
2021/10/22 09:25:07;;;;;;;3.67;0.90;;;;;;;13.39;63.15;99660.50;4811968;29;120053;-76
2021/10/22 09:27:46;;;;;;;3.53;0.73;;;;;;;13.32;62.28;99677.50;4805576;28;120988;-77
2021/10/22 09:30:30;;;;;;;1.48;0.60;;;;;;;13.25;62.84;99680.72;4822883;28;119871;-76
2021/10/22 09:33:26;;;;;;;4.93;0.98;;;;;;;13.25;62.46;99701.97;4824978;28;120144;-76
2021/10/22 09:35:53;;;;;;;2.83;0.80;;;;;;;13.23;61.56;99718.25;4815190;28;121074;-77
2021/10/22 09:38:37;;;;;;;3.05;0.77;;;;;;;13.22;62.05;99728.50;4816803;28;120018;-76
2021/10/22 09:41:06;;;;;;;4.97;0.80;;;;;;;13.23;62.17;99734.78;4838820;28;121526;-76
2021/10/22 09:43:39;;;;;;;2.00;0.57;;;;;;;13.16;61.11;99757.97;4809348;28;120665;-76
2021/10/22 09:46:18;;;;;;;2.72;0.50;;;;;;;12.96;60.08;99747.06;4812470;28;119513;-76
2021/10/22 09:48:48;;;;;;;3.67;0.90;;;;;;;12.78;60.85;99759.97;4824233;28;119973;-76
2021/10/22 09:51:34;;;;;;;3.13;0.80;;;;;;;12.72;61.73;99761.88;4824128;28;119495;-76
2021/10/22 09:54:07;;;;;;;4.30;0.82;;;;;;;12.74;63.24;99753.13;4809270;28;119899;-76
2021/10/22 09:56:33;;;;;;;2.83;0.70;;;;;;;12.75;63.14;99751.91;4809236;29;119420;-76
2021/10/22 09:59:06;;;;;;;10.05;1.00;;;;;;;12.76;63.62;99759.66;4821483;28;119766;-76
2021/10/22 10:01:34;;;;;;;3.85;0.82;;;;;;;12.73;62.49;99760.63;4801926;28;119871;-75
2021/10/22 10:04:11;;;;;;;5.43;0.90;;;;;;;12.73;63.45;99777.16;4824321;28;119895;-76
2021/10/22 10:06:39;;;;;;;3.60;0.93;;;;;;;12.75;64.28;99779.41;4806402;29;124910;-76
2021/10/22 10:09:08;;;;;;;2.33;0.80;;;;;;;12.74;63.97;99781.41;4807227;28;119986;-76
2021/10/22 10:11:36;;;;;;;4.60;1.00;;;;;;;12.86;63.59;99796.78;4825982;28;119574;-76
2021/10/22 10:14:02;;;;;;;3.45;0.70;;;;;;;12.95;63.99;99815.13;4822690;28;119699;-76
2021/10/22 10:16:33;;;;;;;2.80;1.05;;;;;;;13.03;63.15;99829.22;4807576;28;119647;-76
2021/10/22 10:19:06;;;;;;;4.45;0.90;;;;;;;13.01;63.71;99842.69;4822995;28;119613;-75
2021/10/22 10:21:40;;;;;;;4.22;0.98;;;;;;;13.05;64.05;99855.03;4815493;29;120661;-74
2021/10/22 10:24:11;;;;;;;5.72;1.17;;;;;;;13.02;64.01;99833.22;4826461;28;120944;-77
2021/10/22 10:26:37;;;;;;;6.25;1.40;;;;;;;12.88;63.28;99827.34;4846528;28;120400;-85
2021/10/22 10:29:08;;;;;;;3.22;0.90;;;;;;;12.71;63.21;99829.16;4826143;28;119400;-75
2021/10/22 10:31:44;;;;;;;6.55;1.40;;;;;;;12.59;63.42;99836.56;4811756;29;121018;-75
2021/10/22 10:34:29;;;;;;;6.93;1.77;;;;;;;12.52;64.40;99853.47;4828978;28;120829;-74
2021/10/22 10:36:59;;;;;;;7.47;1.13;;;;;;;12.54;65.13;99861.25;4807277;29;122327;-74
2021/10/22 10:39:43;;;;;;;3.53;0.90;;;;;;;12.51;64.17;99870.44;4825722;28;119396;-74
2021/10/22 10:42:19;;;;;;;;;;;;;;;12.47;64.43;99880.91;4828604;28;119827;-75
2021/10/22 10:44:46;;;;;;;4.07;1.20;;;;;;;12.45;63.94;99894.41;4825031;28;120452;-74
2021/10/22 10:47:27;;;;;;;2.08;1.00;;;;;;;12.41;64.65;99891.09;4829306;28;119232;-74
2021/10/22 10:49:53;;;;;;;4.65;1.00;;;;;;;12.36;64.15;99886.28;4824250;28;120265;-75
2021/10/22 10:52:37;;;;;;;4.88;1.33;;;;;;;12.32;64.53;99902.25;4810076;28;119842;-73
2021/10/22 10:55:32;;;;;;;2.03;1.08;;;;;;;12.33;65.37;99903.75;4828977;28;119293;-74
2021/10/22 10:58:00;;;;;;;2.55;0.65;;;;;;;12.38;65.59;99901.06;4822366;28;119401;-74
2021/10/22 11:00:41;;;;;;;4.20;0.80;;;;;;;12.40;65.34;99895.84;4824526;28;120261;-76
2021/10/22 11:03:16;;;;;;;3.85;0.70;;;;;;;12.39;65.53;99890.81;4821209;28;121795;-74
2021/10/22 11:05:42;;;;;;;3.55;0.70;;;;;;;12.47;66.03;99906.41;4829615;28;119280;-74
2021/10/22 11:08:17;;;;;;;1.67;0.55;;;;;;;12.52;66.07;99902.22;4823569;28;120933;-74
2021/10/22 11:11:04;;;;;;;1.90;0.70;;;;;;;12.54;65.62;99897.78;4809195;28;119646;-74
2021/10/22 11:13:42;;;;;;;3.08;0.60;;;;;;;12.56;65.01;99905.53;4810191;28;119518;-74
2021/10/22 11:16:25;;;;;;;0.75;0.40;;;;;;;12.59;65.26;99916.34;4819490;28;120063;-73
2021/10/22 11:18:52;;;;;;;2.63;0.50;;;;;;;12.61;65.08;99910.34;4825592;28;119587;-74
2021/10/22 11:21:18;;;;;;;3.33;0.63;;;;;;;12.63;64.99;99921.63;4841941;28;119433;-74
2021/10/22 11:23:44;;;;;;;1.85;0.70;;;;;;;12.65;65.04;99929.41;4812888;28;119828;-74
2021/10/22 11:26:19;;;;;;;3.25;0.50;;;;;;;12.66;64.62;99926.16;4822992;28;119593;-74
2021/10/22 11:29:15;;;;;;;1.88;0.50;;;;;;;12.72;63.89;99942.72;4811971;28;119641;-74
2021/10/22 11:31:51;;;;;;;2.67;0.50;;;;;;;12.69;64.14;99940.94;4813284;28;119774;-77